Time;durP1;ratioP1;P1;durP2;ratioP2;P2;SDS_P1;SDS_P2;PMS_P1;PMS_P2;Temp;Humidity;BMP_temperature;BMP_pressure;BME280_temperature;BME280_humidity;BME280_pressure;Samples;Min_cycle;Max_cycle;Signal;HPM_P1;HPM_P2
2023/06/24 00:01:50;;;;;;;0.63;0.63;;;;;15.10;96902.00;;;;4996605;28;20198;-57
2023/06/24 00:04:20;;;;;;;0.97;0.97;;;;;15.10;96897.00;;;;4996326;28;20195;-56
2023/06/24 00:06:48;;;;;;;0.80;0.80;;;;;14.80;96902.00;;;;4978772;28;20190;-56
2023/06/24 00:09:15;;;;;;;0.97;0.97;;;;;14.80;96903.00;;;;4996294;28;20585;-56
2023/06/24 00:11:42;;;;;;;0.93;0.93;;;;;15.00;96901.00;;;;4996932;28;20242;-57
2023/06/24 00:14:10;;;;;;;0.60;0.60;;;;;15.00;96908.00;;;;4996088;28;20198;-56
2023/06/24 00:16:38;;;;;;;0.87;0.87;;;;;15.00;96900.00;;;;4996199;28;20198;-55
2023/06/24 00:19:08;;;;;;;2.00;1.53;;;;;15.00;96908.00;;;;4995876;28;20209;-56
2023/06/24 00:21:37;;;;;;;0.87;0.87;;;;;14.90;96906.00;;;;4995978;28;20256;-56
2023/06/24 00:24:05;;;;;;;1.23;1.23;;;;;15.00;96901.00;;;;4996153;28;20195;-57
2023/06/24 00:26:32;;;;;;;2.00;1.70;;;;;15.00;96911.00;;;;4995982;28;20205;-56
2023/06/24 00:29:00;;;;;;;0.90;0.90;;;;;15.00;96898.00;;;;4995382;28;20221;-57
2023/06/24 00:31:27;;;;;;;0.80;0.80;;;;;15.00;96861.00;;;;4995995;28;20204;-56
2023/06/24 00:33:55;;;;;;;1.40;1.30;;;;;14.90;96890.00;;;;4995762;28;20757;-57
2023/06/24 00:36:23;;;;;;;3.03;1.67;;;;;14.90;96901.00;;;;4995720;28;20272;-58
2023/06/24 00:38:51;;;;;;;1.13;1.13;;;;;14.70;96899.00;;;;4995604;28;20213;-56
2023/06/24 00:41:19;;;;;;;1.17;1.03;;;;;14.80;96901.00;;;;4995899;28;20213;-55
2023/06/24 00:43:47;;;;;;;0.70;0.70;;;;;14.70;96903.00;;;;4995507;28;20646;-56
2023/06/24 00:46:15;;;;;;;1.20;1.20;;;;;14.70;96895.00;;;;4995862;28;20194;-56
2023/06/24 00:48:43;;;;;;;2.90;1.20;;;;;14.50;96889.00;;;;4995163;28;20312;-57
2023/06/24 00:51:10;;;;;;;0.73;0.73;;;;;14.50;96894.00;;;;4995447;28;20204;-57
2023/06/24 00:53:39;;;;;;;2.10;1.50;;;;;14.50;96894.00;;;;4995378;28;20202;-55
2023/06/24 00:56:07;;;;;;;0.87;0.87;;;;;14.50;96892.00;;;;4995693;28;20724;-56
2023/06/24 00:58:38;;;;;;;0.80;0.80;;;;;14.50;96891.00;;;;4996184;28;20212;-55
2023/06/24 01:01:08;;;;;;;1.30;1.30;;;;;14.40;96904.00;;;;4995773;28;20259;-56
2023/06/24 01:03:37;;;;;;;1.90;1.37;;;;;14.40;96891.00;;;;4996223;28;20253;-57
2023/06/24 01:06:05;;;;;;;1.37;1.27;;;;;14.30;96899.00;;;;4995512;28;20202;-55
2023/06/24 01:08:32;;;;;;;0.80;0.80;;;;;14.30;96899.00;;;;4994158;28;20258;-56
2023/06/24 01:11:01;;;;;;;1.03;1.03;;;;;14.40;96894.00;;;;4993935;28;20198;-56
2023/06/24 01:13:29;;;;;;;1.00;0.97;;;;;14.30;96893.00;;;;4995242;28;20198;-56
2023/06/24 01:15:59;;;;;;;2.37;2.17;;;;;14.30;96902.00;;;;4995215;28;20205;-56
2023/06/24 01:18:33;;;;;;;1.70;1.60;;;;;14.30;96899.00;;;;4995098;28;20214;-57
2023/06/24 01:21:06;;;;;;;0.93;0.93;;;;;14.30;96891.00;;;;4995093;28;20190;-56
2023/06/24 01:24:21;;;;;;;1.33;1.33;;;;;14.20;96889.00;;;;4994813;28;20182;-56
2023/06/24 01:27:30;;;;;;;0.70;0.70;;;;;14.20;96884.00;;;;4956423;28;20214;-56
2023/06/24 01:30:13;;;;;;;0.90;0.90;;;;;14.10;96888.00;;;;4974963;28;20315;-56
2023/06/24 01:32:48;;;;;;;1.53;1.43;;;;;14.10;96891.00;;;;4994645;28;20190;-56
2023/06/24 01:35:21;;;;;;;2.97;1.63;;;;;14.10;96889.00;;;;4994848;28;20186;-56
2023/06/24 01:37:52;;;;;;;1.53;1.43;;;;;14.20;96878.00;;;;4994762;28;20597;-56
2023/06/24 01:40:26;;;;;;;1.37;1.07;;;;;14.10;96883.00;;;;4976777;28;20202;-56
2023/06/24 01:42:55;;;;;;;0.73;0.73;;;;;14.10;96879.00;;;;4994541;28;20185;-56
2023/06/24 01:45:27;;;;;;;1.23;1.23;;;;;14.00;96877.00;;;;4994290;28;20190;-56
2023/06/24 01:48:03;;;;;;;0.93;0.93;;;;;14.00;96876.00;;;;4994367;28;20218;-55
2023/06/24 01:50:33;;;;;;;1.20;1.20;;;;;13.90;96881.00;;;;4994256;28;20198;-56
2023/06/24 01:53:05;;;;;;;0.97;0.97;;;;;13.90;96877.00;;;;4994316;28;20182;-56
2023/06/24 01:55:34;;;;;;;1.00;1.00;;;;;13.90;96882.00;;;;4994667;28;20197;-56
2023/06/24 01:58:06;;;;;;;0.80;0.80;;;;;13.80;96874.00;;;;4994092;28;20214;-55
2023/06/24 02:00:36;;;;;;;1.00;1.00;;;;;13.70;96882.00;;;;4994111;28;20183;-55
2023/06/24 02:03:06;;;;;;;1.47;1.37;;;;;13.70;96891.00;;;;4994034;28;20190;-56
2023/06/24 02:05:39;;;;;;;1.00;1.00;;;;;13.60;96886.00;;;;4994289;28;20194;-55
2023/06/24 02:08:09;;;;;;;1.03;1.03;;;;;13.40;96881.00;;;;4994333;28;20213;-55
2023/06/24 02:10:39;;;;;;;1.13;0.70;;;;;13.40;96884.00;;;;4993909;28;20198;-55
2023/06/24 02:13:08;;;;;;;1.77;1.67;;;;;13.40;96885.00;;;;4993923;28;20205;-55
2023/06/24 02:15:37;;;;;;;2.03;1.30;;;;;13.40;96877.00;;;;4993821;28;20194;-55
2023/06/24 02:18:09;;;;;;;1.27;1.27;;;;;13.50;96871.00;;;;4993961;28;20301;-56
2023/06/24 02:20:38;;;;;;;0.67;0.67;;;;;13.40;96877.00;;;;4993833;28;20182;-55
2023/06/24 02:23:09;;;;;;;1.23;1.23;;;;;13.50;96875.00;;;;4993755;28;20260;-55
2023/06/24 02:25:39;;;;;;;0.70;0.70;;;;;13.40;96871.00;;;;4994792;28;20217;-60
2023/06/24 02:28:08;;;;;;;1.57;1.47;;;;;13.40;96870.00;;;;4994261;28;20214;-55
2023/06/24 02:30:37;;;;;;;2.20;2.10;;;;;13.40;96863.00;;;;4993935;28;20205;-57
2023/06/24 02:33:06;;;;;;;1.00;1.00;;;;;13.50;96871.00;;;;4993711;28;20201;-54
2023/06/24 02:35:34;;;;;;;1.53;1.43;;;;;13.50;96866.00;;;;4993843;28;20272;-55
2023/06/24 02:38:03;;;;;;;0.80;0.80;;;;;13.50;96876.00;;;;4993702;28;20685;-54
2023/06/24 02:40:30;;;;;;;1.90;1.80;;;;;13.60;96869.00;;;;4993439;28;20277;-54
2023/06/24 02:42:59;;;;;;;1.20;1.20;;;;;13.40;96864.00;;;;4993449;28;20202;-54
2023/06/24 02:45:27;;;;;;;1.43;1.33;;;;;13.40;96867.00;;;;4993364;28;20194;-55
2023/06/24 02:47:55;;;;;;;1.10;1.10;;;;;13.20;96862.00;;;;4993450;28;20214;-54
2023/06/24 02:50:26;;;;;;;1.33;1.27;;;;;13.20;96865.00;;;;4993650;28;20202;-54
2023/06/24 02:52:53;;;;;;;0.87;0.87;;;;;13.20;96869.00;;;;4996372;28;20186;-54
2023/06/24 02:55:21;;;;;;;0.70;0.70;;;;;13.10;96865.00;;;;4997355;28;20331;-54
2023/06/24 02:57:50;;;;;;;1.23;1.17;;;;;13.20;96868.00;;;;4997741;28;20577;-54
2023/06/24 03:00:19;;;;;;;1.20;1.20;;;;;13.30;96872.00;;;;4997568;28;20190;-54
2023/06/24 03:02:47;;;;;;;5.03;2.73;;;;;13.30;96873.00;;;;4997276;28;20194;-54
2023/06/24 03:05:16;;;;;;;0.90;0.90;;;;;13.30;96872.00;;;;4997381;28;20638;-54
2023/06/24 03:07:45;;;;;;;1.33;1.33;;;;;13.30;96872.00;;;;4997088;28;20194;-54
2023/06/24 03:10:15;;;;;;;1.37;1.37;;;;;13.40;96865.00;;;;4997193;28;20705;-54
2023/06/24 03:12:42;;;;;;;0.93;0.93;;;;;13.40;96867.00;;;;4997023;28;20198;-54
2023/06/24 03:15:10;;;;;;;0.83;0.83;;;;;13.30;96873.00;;;;4997165;28;20194;-54
2023/06/24 03:17:38;;;;;;;1.03;1.03;;;;;13.20;96867.00;;;;4996932;28;20217;-55
2023/06/24 03:20:07;;;;;;;1.00;1.00;;;;;12.90;96874.00;;;;4997012;28;20193;-55
2023/06/24 03:22:35;;;;;;;1.03;1.03;;;;;12.90;96884.00;;;;4997333;28;20194;-54
2023/06/24 03:25:04;;;;;;;1.37;1.27;;;;;12.80;96876.00;;;;4996709;28;20649;-55
2023/06/24 03:27:33;;;;;;;1.37;1.27;;;;;12.70;96869.00;;;;4996663;28;20205;-54
2023/06/24 03:30:01;;;;;;;1.07;1.07;;;;;12.70;96874.00;;;;4996928;28;20333;-54
2023/06/24 03:32:28;;;;;;;0.70;0.70;;;;;12.90;96877.00;;;;4996661;28;20372;-54
2023/06/24 03:34:55;;;;;;;1.30;1.30;;;;;13.00;96880.00;;;;4996522;28;20293;-54
2023/06/24 03:37:23;;;;;;;1.10;1.10;;;;;12.90;96876.00;;;;4996571;28;20201;-54
2023/06/24 03:39:50;;;;;;;1.10;1.10;;;;;12.80;96884.00;;;;4996470;28;20713;-54
2023/06/24 03:42:19;;;;;;;1.10;1.10;;;;;12.80;96884.00;;;;4996829;28;20569;-54
2023/06/24 03:44:46;;;;;;;1.53;1.43;;;;;12.90;96878.00;;;;4996502;28;20230;-54
2023/06/24 03:47:14;;;;;;;0.93;0.93;;;;;12.90;96887.00;;;;4996465;28;20201;-54
2023/06/24 03:49:41;;;;;;;1.00;1.00;;;;;13.00;96889.00;;;;4996207;28;20226;-55
2023/06/24 03:52:09;;;;;;;1.20;1.20;;;;;13.00;96893.00;;;;4996323;28;20194;-55
2023/06/24 03:54:37;;;;;;;1.20;1.20;;;;;13.10;96901.00;;;;4996340;28;20277;-55
2023/06/24 03:57:06;;;;;;;0.60;0.60;;;;;13.10;96889.00;;;;4996481;28;20198;-54
2023/06/24 03:59:34;;;;;;;0.90;0.90;;;;;13.00;96888.00;;;;4996348;28;20301;-54
2023/06/24 04:02:02;;;;;;;1.37;1.37;;;;;13.10;96896.00;;;;4996433;28;20216;-54
2023/06/24 04:04:29;;;;;;;1.00;1.00;;;;;13.00;96893.00;;;;4996105;28;20225;-55
2023/06/24 04:06:56;;;;;;;1.83;1.73;;;;;13.00;96901.00;;;;4995977;28;20197;-55
2023/06/24 04:09:24;;;;;;;1.00;1.00;;;;;13.10;96906.00;;;;4996433;28;20298;-60
2023/06/24 04:11:51;;;;;;;0.70;0.70;;;;;13.30;96907.00;;;;4996782;28;20198;-55
2023/06/24 04:14:19;;;;;;;1.07;1.07;;;;;13.30;96909.00;;;;4995982;28;20209;-55
2023/06/24 04:16:47;;;;;;;0.67;0.67;;;;;13.40;96907.00;;;;4996956;28;20285;-55
2023/06/24 04:19:15;;;;;;;1.10;1.00;;;;;13.40;96902.00;;;;4996084;28;20689;-55
2023/06/24 04:21:42;;;;;;;1.00;1.00;;;;;13.40;96900.00;;;;4995831;28;20194;-55
2023/06/24 04:24:10;;;;;;;1.00;1.00;;;;;13.30;96909.00;;;;4995694;28;20194;-55
2023/06/24 04:26:37;;;;;;;0.83;0.83;;;;;13.30;96904.00;;;;4995791;28;20200;-55
2023/06/24 04:29:04;;;;;;;1.50;1.03;;;;;13.30;96919.00;;;;4996035;28;20214;-55
2023/06/24 04:31:32;;;;;;;0.77;0.77;;;;;13.20;96916.00;;;;4995643;28;20194;-55
2023/06/24 04:34:00;;;;;;;1.60;1.50;;;;;13.30;96920.00;;;;4995741;28;20225;-56
2023/06/24 04:36:28;;;;;;;2.07;1.53;;;;;13.30;96921.00;;;;4995897;28;20224;-56
2023/06/24 04:38:56;;;;;;;1.60;1.50;;;;;13.40;96915.00;;;;4995723;28;20221;-56
2023/06/24 04:41:25;;;;;;;0.77;0.77;;;;;13.40;96919.00;;;;4995409;28;20654;-53
2023/06/24 04:43:52;;;;;;;0.83;0.83;;;;;13.40;96920.00;;;;4995309;28;20278;-54
2023/06/24 04:46:20;;;;;;;1.20;1.20;;;;;13.50;96923.00;;;;4995260;28;20202;-55
2023/06/24 04:48:47;;;;;;;2.07;1.00;;;;;13.50;96920.00;;;;4995052;28;20233;-54
2023/06/24 04:51:16;;;;;;;0.90;0.90;;;;;13.50;96922.00;;;;4995336;28;20198;-54
2023/06/24 04:53:43;;;;;;;0.93;0.93;;;;;13.40;96916.00;;;;4995177;28;20198;-54
2023/06/24 04:56:11;;;;;;;0.90;0.90;;;;;13.40;96921.00;;;;4995350;28;20197;-55
2023/06/24 04:58:38;;;;;;;0.83;0.83;;;;;13.60;96924.00;;;;4995179;28;20234;-55
2023/06/24 05:01:06;;;;;;;1.47;1.37;;;;;13.70;96927.00;;;;4995345;28;20221;-55
2023/06/24 05:03:36;;;;;;;1.33;1.23;;;;;13.80;96924.00;;;;4995121;28;20204;-55
2023/06/24 05:06:03;;;;;;;0.90;0.90;;;;;13.90;96931.00;;;;4995076;28;20190;-55
2023/06/24 05:08:32;;;;;;;0.73;0.73;;;;;13.90;96921.00;;;;4977597;28;20298;-56
2023/06/24 05:11:00;;;;;;;1.17;1.17;;;;;14.00;96933.00;;;;4994877;28;20222;-56
2023/06/24 05:13:28;;;;;;;2.17;1.97;;;;;14.00;96929.00;;;;4995490;28;20200;-55
2023/06/24 05:15:56;;;;;;;1.30;1.20;;;;;14.00;96929.00;;;;4994326;28;20198;-55
2023/06/24 05:18:23;;;;;;;1.43;1.33;;;;;14.00;96930.00;;;;4994584;28;20210;-55
2023/06/24 05:20:51;;;;;;;2.07;1.37;;;;;14.10;96931.00;;;;4994652;28;20191;-54
2023/06/24 05:23:18;;;;;;;1.10;1.10;;;;;14.20;96940.00;;;;4994624;28;20198;-55
2023/06/24 05:25:47;;;;;;;1.10;1.10;;;;;14.30;96939.00;;;;4994885;28;20202;-55
2023/06/24 05:28:14;;;;;;;1.77;1.67;;;;;14.40;96940.00;;;;4994517;28;20221;-55
2023/06/24 05:30:42;;;;;;;1.00;1.00;;;;;14.50;96939.00;;;;4994507;28;20217;-55
2023/06/24 05:33:10;;;;;;;0.77;0.77;;;;;14.60;96944.00;;;;4994691;28;20666;-55
2023/06/24 05:35:40;;;;;;;1.67;1.57;;;;;14.70;96945.00;;;;4994578;28;20252;-55
2023/06/24 05:38:08;;;;;;;0.90;0.90;;;;;14.70;96949.00;;;;4995167;28;20230;-55
2023/06/24 05:40:35;;;;;;;1.10;1.10;;;;;14.60;96947.00;;;;4994427;28;20191;-55
2023/06/24 05:43:04;;;;;;;0.90;0.90;;;;;14.80;96950.00;;;;4994595;28;20557;-55
2023/06/24 05:45:31;;;;;;;0.97;0.97;;;;;14.80;96954.00;;;;4976886;28;20661;-55
2023/06/24 05:47:59;;;;;;;1.57;1.47;;;;;14.90;96955.00;;;;4993946;28;20584;-55
2023/06/24 05:50:26;;;;;;;0.77;0.77;;;;;15.00;96950.00;;;;4994598;28;20734;-55
2023/06/24 05:52:53;;;;;;;1.70;1.60;;;;;15.10;96952.00;;;;4994154;28;20662;-55
2023/06/24 05:55:21;;;;;;;1.53;1.43;;;;;15.10;96952.00;;;;4976583;28;20545;-55
2023/06/24 05:57:48;;;;;;;1.67;1.57;;;;;15.20;96953.00;;;;4994201;28;20569;-55
2023/06/24 06:00:19;;;;;;;1.80;1.70;;;;;15.40;96942.00;;;;4994076;28;20201;-55
2023/06/24 06:02:46;;;;;;;0.83;0.83;;;;;15.40;96936.00;;;;4994295;28;20198;-55
2023/06/24 06:05:14;;;;;;;16.17;1.93;;;;;15.70;96946.00;;;;4994230;28;20190;-56
2023/06/24 06:07:42;;;;;;;1.00;1.00;;;;;15.70;96945.00;;;;4993792;28;20201;-55
2023/06/24 06:10:10;;;;;;;0.90;0.90;;;;;15.80;96946.00;;;;4993865;28;20228;-55
2023/06/24 06:12:38;;;;;;;1.50;1.40;;;;;15.90;96943.00;;;;4992558;28;20673;-55
2023/06/24 06:15:06;;;;;;;0.80;0.80;;;;;16.00;96953.00;;;;4994095;28;20206;-55
2023/06/24 06:17:35;;;;;;;0.90;0.90;;;;;16.10;96950.00;;;;4993688;28;20190;-55
2023/06/24 06:20:03;;;;;;;1.03;1.03;;;;;16.20;96955.00;;;;4993975;28;20566;-55
2023/06/24 06:22:32;;;;;;;1.13;1.13;;;;;16.20;96945.00;;;;4993987;28;20195;-55
2023/06/24 06:24:59;;;;;;;1.27;1.27;;;;;16.50;96949.00;;;;4993867;28;20194;-56
2023/06/24 06:27:26;;;;;;;1.70;1.60;;;;;16.60;96947.00;;;;4992844;28;20201;-56
2023/06/24 06:29:54;;;;;;;0.70;0.70;;;;;16.70;96939.00;;;;4993793;28;20236;-56
2023/06/24 06:32:21;;;;;;;1.20;1.20;;;;;16.80;96943.00;;;;4993797;28;20198;-56
2023/06/24 06:34:50;;;;;;;1.37;1.37;;;;;17.00;96939.00;;;;4993829;28;20225;-56
2023/06/24 06:37:17;;;;;;;1.50;1.40;;;;;17.10;96943.00;;;;4993573;28;20197;-56
2023/06/24 06:39:44;;;;;;;1.33;1.23;;;;;17.20;96944.00;;;;4993545;28;20205;-56
2023/06/24 06:42:12;;;;;;;1.20;1.20;;;;;17.20;96939.00;;;;4993581;28;20249;-56
2023/06/24 06:44:39;;;;;;;5.17;2.80;;;;;17.40;96942.00;;;;4993503;28;20193;-56
2023/06/24 06:47:07;;;;;;;0.93;0.93;;;;;17.30;96940.00;;;;4993754;28;20198;-54
2023/06/24 06:49:35;;;;;;;1.43;1.33;;;;;17.50;96934.00;;;;4993157;28;20590;-56
2023/06/24 06:52:04;;;;;;;1.50;1.40;;;;;17.90;96935.00;;;;4993384;28;20204;-55
2023/06/24 06:54:31;;;;;;;1.37;1.37;;;;;18.10;96938.00;;;;4993416;28;20281;-55
2023/06/24 06:57:02;;;;;;;1.20;1.20;;;;;18.10;96933.00;;;;4993321;28;20197;-55
2023/06/24 06:59:29;;;;;;;1.13;1.13;;;;;18.20;96934.00;;;;4993549;28;20210;-56
2023/06/24 07:01:57;;;;;;;1.23;1.23;;;;;18.30;96932.00;;;;4993281;28;20221;-56
2023/06/24 07:04:25;;;;;;;2.03;1.60;;;;;18.30;96934.00;;;;4993273;28;20661;-55
2023/06/24 07:06:53;;;;;;;1.07;1.07;;;;;18.60;96929.00;;;;4993297;28;20657;-56
2023/06/24 07:09:21;;;;;;;1.10;1.10;;;;;18.80;96936.00;;;;4975842;28;20218;-56
2023/06/24 07:11:49;;;;;;;0.87;0.87;;;;;18.80;96933.00;;;;4993473;28;20233;-55
2023/06/24 07:14:16;;;;;;;2.40;1.20;;;;;18.90;96934.00;;;;4993297;28;20194;-56
2023/06/24 07:16:43;;;;;;;1.00;1.00;;;;;19.00;96937.00;;;;4993218;28;20195;-56
2023/06/24 07:19:11;;;;;;;1.07;1.07;;;;;18.90;96931.00;;;;4993527;28;20222;-56
2023/06/24 07:21:39;;;;;;;1.17;1.17;;;;;19.10;96930.00;;;;4993484;28;20190;-56
2023/06/24 07:24:07;;;;;;;0.70;0.70;;;;;19.20;96936.00;;;;4993561;28;20235;-55
2023/06/24 07:26:36;;;;;;;0.90;0.90;;;;;19.40;96933.00;;;;4993260;28;20662;-55
2023/06/24 07:29:06;;;;;;;1.07;1.00;;;;;19.60;96927.00;;;;4993148;28;20217;-55
2023/06/24 07:31:33;;;;;;;1.90;1.13;;;;;19.60;96921.00;;;;4993163;28;20229;-56
2023/06/24 07:34:01;;;;;;;4.10;1.37;;;;;19.60;96926.00;;;;4993244;28;20206;-56
2023/06/24 07:36:29;;;;;;;1.30;1.23;;;;;19.70;96926.00;;;;4992750;28;20200;-55
2023/06/24 07:38:56;;;;;;;1.20;1.20;;;;;19.90;96928.00;;;;4995597;28;20265;-57
2023/06/24 07:41:23;;;;;;;2.97;1.63;;;;;20.10;96899.00;;;;4996683;28;20190;-60
2023/06/24 07:43:52;;;;;;;1.47;1.37;;;;;20.20;96922.00;;;;4996392;28;20202;-56
2023/06/24 07:46:19;;;;;;;0.80;0.80;;;;;20.20;96925.00;;;;4996953;28;20209;-56
2023/06/24 07:48:47;;;;;;;0.87;0.87;;;;;20.00;96926.00;;;;4996413;28;20256;-56
2023/06/24 07:51:14;;;;;;;1.10;1.10;;;;;20.10;96919.00;;;;4996261;28;20214;-56
2023/06/24 07:53:41;;;;;;;1.27;1.27;;;;;20.20;96929.00;;;;4996791;28;20198;-56
2023/06/24 07:56:09;;;;;;;0.97;0.97;;;;;20.50;96918.00;;;;4996220;28;20194;-56
2023/06/24 07:58:38;;;;;;;0.93;0.93;;;;;20.50;96922.00;;;;4996152;28;20218;-56
2023/06/24 08:01:06;;;;;;;2.67;2.47;;;;;20.60;96922.00;;;;4996228;28;20193;-56
2023/06/24 08:03:36;;;;;;;1.20;1.20;;;;;20.80;96897.00;;;;4996598;28;20253;-56
2023/06/24 08:06:04;;;;;;;0.83;0.77;;;;;20.90;96918.00;;;;4996415;28;20202;-56
2023/06/24 08:08:31;;;;;;;1.13;1.13;;;;;20.80;96887.00;;;;4996291;28;20214;-56
2023/06/24 08:10:59;;;;;;;1.00;1.00;;;;;21.10;96916.00;;;;4996317;28;20305;-56
2023/06/24 08:13:26;;;;;;;1.17;1.17;;;;;21.20;96923.00;;;;4996252;28;20249;-56
2023/06/24 08:15:54;;;;;;;0.82;0.82;;;;;21.20;96921.00;;;;4995964;28;20199;-56
2023/06/24 08:18:22;;;;;;;1.23;1.13;;;;;21.20;96917.00;;;;4995940;28;20220;-56
2023/06/24 08:20:50;;;;;;;0.83;0.83;;;;;21.30;96916.00;;;;4995814;28;20198;-57
2023/06/24 08:23:17;;;;;;;0.95;0.95;;;;;21.50;96914.00;;;;4995763;28;20229;-56
2023/06/24 08:25:44;;;;;;;0.82;0.82;;;;;21.50;96914.00;;;;4996127;28;20597;-56
2023/06/24 08:28:12;;;;;;;0.63;0.63;;;;;21.40;96907.00;;;;4995676;28;20228;-56
2023/06/24 08:30:39;;;;;;;1.25;1.17;;;;;21.80;96904.00;;;;4995680;28;20218;-56
2023/06/24 08:33:07;;;;;;;2.05;1.73;;;;;21.50;96922.00;;;;4995615;28;20205;-56
2023/06/24 08:35:35;;;;;;;2.22;1.42;;;;;21.60;96912.00;;;;4996163;28;20194;-56
2023/06/24 08:38:03;;;;;;;0.60;0.60;;;;;21.80;96911.00;;;;4995542;28;20214;-56
2023/06/24 08:40:31;;;;;;;1.13;1.13;;;;;21.80;96911.00;;;;4995737;28;20190;-55
2023/06/24 08:42:58;;;;;;;0.60;0.60;;;;;21.90;96907.00;;;;4995519;28;20217;-56
2023/06/24 08:45:26;;;;;;;1.17;1.13;;;;;21.80;96904.00;;;;4995391;28;20222;-56
2023/06/24 08:47:55;;;;;;;0.75;0.75;;;;;21.90;96909.00;;;;4995899;28;20214;-56
2023/06/24 08:50:26;;;;;;;1.00;0.80;;;;;22.00;96912.00;;;;4994372;28;20598;-56
2023/06/24 08:52:55;;;;;;;1.38;1.27;;;;;22.10;96914.00;;;;4995586;28;20191;-56
2023/06/24 08:55:27;;;;;;;0.57;0.57;;;;;22.10;96910.00;;;;4995814;28;20202;-55
2023/06/24 08:57:54;;;;;;;0.70;0.70;;;;;22.30;96866.00;;;;4995504;28;20711;-55
2023/06/24 09:00:22;;;;;;;1.73;1.10;;;;;22.50;96909.00;;;;4995191;28;20189;-55
2023/06/24 09:02:49;;;;;;;0.77;0.77;;;;;22.40;96903.00;;;;4993993;28;20606;-56
2023/06/24 09:05:16;;;;;;;0.85;0.85;;;;;22.40;96905.00;;;;4995166;28;20629;-57
2023/06/24 09:07:44;;;;;;;0.47;0.47;;;;;22.60;96902.00;;;;4995139;28;20190;-56
2023/06/24 09:10:32;;;;;;;1.27;1.17;;;;;23.00;96899.00;;;;4995532;28;20197;-56
2023/06/24 09:13:00;;;;;;;1.70;1.48;;;;;23.10;96901.00;;;;4995190;28;20182;-56
2023/06/24 09:15:31;;;;;;;0.50;0.50;;;;;23.30;96907.00;;;;4995294;28;20194;-56
2023/06/24 09:18:00;;;;;;;0.68;0.68;;;;;23.20;96901.00;;;;4977560;28;20226;-55
2023/06/24 09:20:28;;;;;;;0.70;0.70;;;;;23.20;96898.00;;;;4995128;28;20313;-56
2023/06/24 09:23:00;;;;;;;1.10;1.10;;;;;23.30;96896.00;;;;4995033;28;20708;-56
2023/06/24 09:25:29;;;;;;;0.50;0.50;;;;;23.40;96892.00;;;;4994784;28;20518;-56
2023/06/24 09:27:59;;;;;;;0.77;0.77;;;;;23.40;96889.00;;;;4994842;28;20280;-56
2023/06/24 09:30:27;;;;;;;3.35;1.50;;;;;23.40;96892.00;;;;4994490;28;20194;-56
2023/06/24 09:32:55;;;;;;;0.70;0.70;;;;;23.60;96883.00;;;;4994679;28;20322;-56
2023/06/24 09:35:24;;;;;;;0.50;0.50;;;;;23.40;96865.00;;;;4995108;28;20209;-56
2023/06/24 09:37:52;;;;;;;0.90;0.90;;;;;23.40;96885.00;;;;4994968;28;20333;-56
2023/06/24 09:40:20;;;;;;;1.13;1.13;;;;;23.60;96884.00;;;;4977056;28;20567;-56
2023/06/24 09:42:52;;;;;;;0.75;0.75;;;;;23.80;96885.00;;;;4994470;28;20669;-56
2023/06/24 09:45:25;;;;;;;1.15;1.15;;;;;23.90;96877.00;;;;4994755;28;20565;-56
2023/06/24 09:47:52;;;;;;;1.55;1.45;;;;;24.10;96871.00;;;;4994390;28;20689;-57
2023/06/24 09:50:19;;;;;;;4.03;1.92;;;;;23.90;96872.00;;;;4994565;28;20191;-56
2023/06/24 09:52:48;;;;;;;0.70;0.70;;;;;24.00;96874.00;;;;4994817;28;20252;-56
2023/06/24 09:55:17;;;;;;;0.70;0.70;;;;;24.00;96872.00;;;;4994513;28;20202;-57
2023/06/24 09:57:47;;;;;;;6.75;0.77;;;;;23.90;96866.00;;;;4994111;28;20201;-57
2023/06/24 10:00:18;;;;;;;0.80;0.80;;;;;24.00;96871.00;;;;4994061;28;20194;-56
2023/06/24 10:02:47;;;;;;;1.08;1.08;;;;;24.10;96871.00;;;;4994396;28;20182;-56
2023/06/24 10:05:15;;;;;;;1.48;1.38;;;;;24.40;96866.00;;;;4994270;28;20190;-56
2023/06/24 10:07:43;;;;;;;0.50;0.50;;;;;24.60;96865.00;;;;4976842;28;20220;-56
2023/06/24 10:10:11;;;;;;;6.97;1.00;;;;;24.50;96874.00;;;;4994002;28;20203;-56
2023/06/24 10:12:38;;;;;;;2.63;1.05;;;;;24.60;96863.00;;;;4994142;28;20685;-56
2023/06/24 10:15:07;;;;;;;0.70;0.70;;;;;24.80;96865.00;;;;4993870;28;20198;-56
2023/06/24 10:17:36;;;;;;;0.93;0.93;;;;;24.80;96864.00;;;;4993836;28;20195;-56
2023/06/24 10:20:06;;;;;;;1.33;0.98;;;;;25.10;96857.00;;;;4994155;28;20202;-57
2023/06/24 10:22:33;;;;;;;0.88;0.88;;;;;25.20;96846.00;;;;4976343;28;20194;-56
2023/06/24 10:25:02;;;;;;;0.80;0.80;;;;;25.20;96846.00;;;;4993979;28;20212;-56
2023/06/24 10:27:33;;;;;;;0.93;0.90;;;;;25.10;96848.00;;;;4993899;28;20684;-56
2023/06/24 10:30:05;;;;;;;0.98;0.98;;;;;25.30;96842.00;;;;4993948;28;20194;-57
2023/06/24 10:32:43;;;;;;;1.15;1.10;;;;;25.40;96834.00;;;;4993631;28;20213;-56
2023/06/24 10:35:29;;;;;;;1.33;1.23;;;;;25.40;96829.00;;;;4994085;28;20190;-56
2023/06/24 10:37:58;;;;;;;1.02;1.02;;;;;25.50;96830.00;;;;4993811;28;20221;-56
2023/06/24 10:40:43;;;;;;;1.55;1.05;;;;;25.90;96831.00;;;;4993602;28;20200;-56
2023/06/24 10:43:30;;;;;;;4.45;2.58;;;;;25.90;96815.00;;;;4993825;28;20186;-57
2023/06/24 10:45:59;;;;;;;1.50;1.40;;;;;25.90;96830.00;;;;4993490;28;20241;-56
2023/06/24 10:48:29;;;;;;;0.70;0.70;;;;;25.80;96825.00;;;;4993669;28;20261;-57
2023/06/24 10:50:56;;;;;;;1.05;1.00;;;;;25.70;96820.00;;;;4993374;28;20221;-56
2023/06/24 10:53:24;;;;;;;0.65;0.65;;;;;25.80;96812.00;;;;4993917;28;20193;-57
2023/06/24 10:55:51;;;;;;;1.00;1.00;;;;;25.80;96828.00;;;;4993874;28;20216;-57
2023/06/24 10:58:19;;;;;;;0.77;0.77;;;;;25.50;96816.00;;;;4993282;28;20210;-56
2023/06/24 11:00:46;;;;;;;0.68;0.68;;;;;25.50;96813.00;;;;4993325;28;20198;-58
2023/06/24 11:03:15;;;;;;;0.82;0.82;;;;;26.10;96822.00;;;;4993291;28;20229;-57
2023/06/24 11:05:47;;;;;;;0.95;0.95;;;;;26.50;96816.00;;;;4993815;28;20198;-56
2023/06/24 11:08:14;;;;;;;0.90;0.90;;;;;26.60;96798.00;;;;4993305;28;20249;-56
2023/06/24 11:10:45;;;;;;;1.17;1.17;;;;;26.50;96797.00;;;;4993445;28;20198;-57
2023/06/24 11:13:13;;;;;;;0.73;0.73;;;;;26.50;96805.00;;;;4995249;28;20217;-57
2023/06/24 11:15:42;;;;;;;1.17;1.17;;;;;27.00;96796.00;;;;4997515;28;20201;-57
2023/06/24 11:18:10;;;;;;;1.27;1.25;;;;;27.30;96794.00;;;;4997370;28;20272;-56
2023/06/24 11:20:39;;;;;;;1.38;1.27;;;;;27.10;96812.00;;;;4979655;28;20264;-57
2023/06/24 11:23:10;;;;;;;0.90;0.90;;;;;26.50;96795.00;;;;4997570;28;20198;-56
2023/06/24 11:25:42;;;;;;;0.90;0.82;;;;;26.60;96791.00;;;;4997089;28;20193;-60
2023/06/24 11:28:18;;;;;;;1.30;1.20;;;;;26.90;96783.00;;;;4997160;28;20219;-56
2023/06/24 11:30:45;;;;;;;0.82;0.82;;;;;26.80;96781.00;;;;4997162;28;20205;-57
2023/06/24 11:33:13;;;;;;;0.60;0.60;;;;;27.00;96799.00;;;;4996807;28;20590;-57
2023/06/24 11:35:40;;;;;;;0.70;0.70;;;;;26.90;96789.00;;;;4996859;28;20194;-57
2023/06/24 11:38:09;;;;;;;1.50;1.40;;;;;27.10;96793.00;;;;4996778;28;20221;-57
2023/06/24 11:40:36;;;;;;;0.80;0.80;;;;;26.90;96762.00;;;;4996784;28;20198;-56
2023/06/24 11:43:04;;;;;;;1.23;1.10;;;;;27.40;96763.00;;;;4996702;28;20198;-56
2023/06/24 11:45:33;;;;;;;0.85;0.85;;;;;27.30;96758.00;;;;4996736;28;20200;-56
2023/06/24 11:48:07;;;;;;;0.60;0.60;;;;;27.00;96762.00;;;;4996637;28;20273;-56
2023/06/24 11:50:38;;;;;;;0.73;0.73;;;;;27.10;96781.00;;;;4996829;28;20654;-56
2023/06/24 11:53:05;;;;;;;1.25;1.15;;;;;27.10;96766.00;;;;4996530;28;20272;-56
2023/06/24 11:55:34;;;;;;;1.33;1.23;;;;;27.60;96751.00;;;;4996830;28;20190;-56
2023/06/24 11:58:04;;;;;;;0.77;0.77;;;;;27.60;96735.00;;;;4978914;28;20586;-57
2023/06/24 12:00:34;;;;;;;0.60;0.60;;;;;27.40;96740.00;;;;4995201;28;20198;-56
2023/06/24 12:03:03;;;;;;;1.08;1.08;;;;;27.70;96736.00;;;;4996670;28;20265;-57
2023/06/24 12:05:31;;;;;;;1.45;1.35;;;;;27.60;96740.00;;;;4996366;28;20277;-56
2023/06/24 12:08:00;;;;;;;0.80;0.80;;;;;27.90;96718.00;;;;4996189;28;20222;-56
2023/06/24 12:10:29;;;;;;;0.93;0.93;;;;;27.80;96719.00;;;;4996305;28;20252;-56
2023/06/24 12:12:59;;;;;;;0.90;0.90;;;;;27.60;96722.00;;;;4996589;28;20218;-56
2023/06/24 12:15:26;;;;;;;0.88;0.88;;;;;28.20;96712.00;;;;4996148;28;20692;-56
2023/06/24 12:17:54;;;;;;;1.20;1.20;;;;;28.70;96723.00;;;;4996009;28;20214;-56
2023/06/24 12:20:21;;;;;;;0.50;0.50;;;;;28.70;96717.00;;;;4996071;28;20202;-57
2023/06/24 12:22:50;;;;;;;0.77;0.77;;;;;28.80;96721.00;;;;4996015;28;20245;-56
2023/06/24 12:25:18;;;;;;;0.70;0.70;;;;;28.80;96715.00;;;;4994533;28;20279;-57
2023/06/24 12:27:46;;;;;;;0.75;0.75;;;;;28.90;96710.00;;;;4978373;28;20291;-56